createdAt,value
2018-08-09T00:00:41.874Z,100033.93
2018-08-09T00:03:09.442Z,100037.83
2018-08-09T00:05:36.417Z,100038.34
2018-08-09T00:08:03.374Z,100028.93
2018-08-09T00:10:30.352Z,100032.27
2018-08-09T00:12:57.282Z,100028.58
2018-08-09T00:15:24.358Z,100027.63
2018-08-09T00:17:51.301Z,100024.94
2018-08-09T00:20:18.245Z,100020.54
2018-08-09T00:22:45.938Z,100020.67
2018-08-09T00:25:12.863Z,100021.86
2018-08-09T00:27:39.746Z,100014.95
2018-08-09T00:30:08.742Z,100016.64
2018-08-09T00:32:36.759Z,100022.29
2018-08-09T00:35:03.778Z,100020.28
2018-08-09T00:37:30.782Z,100021.57
2018-08-09T00:39:57.712Z,100032.45
2018-08-09T00:42:24.670Z,100026.87
2018-08-09T00:44:51.627Z,100024.09
2018-08-09T00:47:18.582Z,100023.91
2018-08-09T00:49:45.599Z,100026.77
2018-08-09T00:52:12.495Z,100021.11
2018-08-09T00:54:39.467Z,100020.45
2018-08-09T00:57:06.377Z,100010.60
2018-08-09T00:59:33.437Z,100010.83
2018-08-09T01:02:00.353Z,100018.61
2018-08-09T01:04:27.278Z,100009.80
2018-08-09T01:06:54.430Z,100007.68
2018-08-09T01:09:21.402Z,100000.77
2018-08-09T01:11:48.365Z,99999.22
2018-08-09T01:14:15.326Z,100000.89
2018-08-09T01:16:42.278Z,99998.07
2018-08-09T01:19:09.217Z,100004.39
2018-08-09T01:21:37.214Z,100000.27
2018-08-09T01:24:05.235Z,99985.77
2018-08-09T01:26:32.175Z,99989.51
2018-08-09T01:28:59.134Z,99994.45
2018-08-09T01:31:32.970Z,99990.77
2018-08-09T01:34:00.706Z,99993.37
2018-08-09T01:36:27.675Z,99998.80
2018-08-09T01:38:54.877Z,99989.12
2018-08-09T01:41:21.781Z,99989.19
2018-08-09T01:43:58.050Z,99988.36
2018-08-09T01:46:25.638Z,99989.95
2018-08-09T01:48:52.902Z,99982.17
2018-08-09T01:51:19.882Z,99980.50
2018-08-09T01:53:48.151Z,99980.12
2018-08-09T01:56:16.034Z,99970.40
2018-08-09T01:58:42.956Z,99970.25
2018-08-09T02:01:09.813Z,99958.70
2018-08-09T02:03:36.694Z,99947.78
2018-08-09T02:06:04.744Z,99949.41
2018-08-09T02:08:31.656Z,99941.78
2018-08-09T02:10:58.597Z,99941.27
2018-08-09T02:13:25.513Z,99940.53
2018-08-09T02:15:53.010Z,99935.98
2018-08-09T02:18:20.066Z,99932.20
2018-08-09T02:20:47.033Z,99937.78
2018-08-09T02:23:15.522Z,99939.72
2018-08-09T02:25:42.454Z,99933.92
2018-08-09T02:28:09.370Z,99929.30
2018-08-09T02:30:36.319Z,99929.67
2018-08-09T02:33:03.275Z,99928.28
2018-08-09T02:35:30.187Z,99925.34
2018-08-09T02:37:57.095Z,99927.36
2018-08-09T02:40:24.559Z,99929.09
2018-08-09T02:42:51.486Z,99933.13
2018-08-09T02:45:18.766Z,99931.87
2018-08-09T02:47:45.678Z,99943.42
2018-08-09T02:50:12.578Z,99942.10
2018-08-09T02:52:39.581Z,99936.79
2018-08-09T02:55:06.514Z,99941.45
2018-08-09T02:57:33.417Z,99941.08
2018-08-09T03:00:00.293Z,99950.13
2018-08-09T03:02:28.337Z,99943.33
2018-08-09T03:04:55.290Z,99946.02
2018-08-09T03:07:22.188Z,99945.88
2018-08-09T03:12:23.355Z,99940.23
2018-08-09T03:14:50.229Z,99933.27
2018-08-09T03:17:17.224Z,99938.88
2018-08-09T03:19:45.091Z,99937.02
2018-08-09T03:22:12.047Z,99931.21
2018-08-09T03:24:39.610Z,99931.17
2018-08-09T03:27:06.582Z,99926.42
2018-08-09T03:29:33.558Z,99927.62
2018-08-09T03:32:00.474Z,99926.30
2018-08-09T03:34:27.452Z,99923.39
2018-08-09T03:36:54.385Z,99929.80
2018-08-09T03:39:21.317Z,99931.04
2018-08-09T03:41:48.222Z,99931.20
2018-08-09T03:44:15.182Z,99923.63
2018-08-09T03:46:43.268Z,99923.05
2018-08-09T03:49:10.185Z,99929.75
2018-08-09T03:51:37.164Z,99924.96
2018-08-09T03:54:04.187Z,99935.89
2018-08-09T03:56:31.078Z,99932.92
2018-08-09T03:58:59.049Z,99931.60
2018-08-09T04:01:27.207Z,99928.19
2018-08-09T04:03:54.131Z,99926.86
2018-08-09T04:06:21.057Z,99927.89
2018-08-09T04:08:48.046Z,99927.84
2018-08-09T04:11:14.974Z,99926.22
2018-08-09T04:13:41.914Z,99932.09
2018-08-09T04:16:08.968Z,99937.23
2018-08-09T04:18:35.900Z,99940.45
2018-08-09T04:21:02.821Z,99946.29
2018-08-09T04:23:29.758Z,99946.53
2018-08-09T04:25:57.635Z,99958.68
2018-08-09T04:28:27.993Z,99960.73
2018-08-09T04:30:54.946Z,99952.94
2018-08-09T04:33:21.883Z,99952.87
2018-08-09T04:35:49.865Z,99955.56
2018-08-09T04:38:16.831Z,99957.89
2018-08-09T04:40:43.834Z,99960.09
2018-08-09T04:43:10.748Z,99955.17
2018-08-09T04:45:37.718Z,99955.21
2018-08-09T04:48:04.721Z,99953.67
2018-08-09T04:50:32.725Z,99959.39
2018-08-09T04:52:59.670Z,99959.58
2018-08-09T04:55:26.552Z,99958.50
2018-08-09T04:57:53.493Z,99951.23
2018-08-09T05:00:20.466Z,99948.55
2018-08-09T05:02:47.441Z,99944.33
2018-08-09T05:05:15.221Z,99941.55
2018-08-09T05:07:42.182Z,99938.33
2018-08-09T05:10:10.145Z,99937.33
2018-08-09T05:12:37.830Z,99940.04
2018-08-09T05:15:04.746Z,99940.20
2018-08-09T05:17:31.877Z,99933.72
2018-08-09T05:19:58.797Z,99938.64
2018-08-09T05:22:26.693Z,99927.96
2018-08-09T05:24:53.641Z,99923.86
2018-08-09T05:27:20.573Z,99922.21
2018-08-09T05:29:47.537Z,99920.36
2018-08-09T05:32:14.522Z,99919.28
2018-08-09T05:34:42.185Z,99916.33
2018-08-09T05:37:09.100Z,99910.22
2018-08-09T05:39:36.043Z,99909.27
2018-08-09T05:42:02.970Z,99908.25
2018-08-09T05:44:29.938Z,99900.73
2018-08-09T05:46:56.874Z,99898.80
2018-08-09T05:49:23.796Z,99886.89
2018-08-09T05:51:50.767Z,99884.77
2018-08-09T05:54:17.731Z,99877.03
2018-08-09T05:56:44.681Z,99877.99
2018-08-09T05:59:11.706Z,99863.92
2018-08-09T06:01:38.602Z,99859.62
2018-08-09T06:04:06.217Z,99864.41
2018-08-09T06:06:33.653Z,99867.22
2018-08-09T06:09:00.637Z,99873.38
2018-08-09T06:11:27.609Z,99876.27
2018-08-09T06:13:54.530Z,99875.19
2018-08-09T06:16:21.473Z,99868.55
2018-08-09T06:18:49.184Z,99877.38
2018-08-09T06:21:16.103Z,99885.80
2018-08-09T06:23:43.043Z,99888.21
2018-08-09T06:26:10.022Z,99887.44
2018-08-09T06:28:37.022Z,99880.63
2018-08-09T06:31:03.941Z,99877.91
2018-08-09T06:33:30.991Z,99884.19
2018-08-09T06:35:57.870Z,99888.66
2018-08-09T06:38:24.810Z,99895.53
2018-08-09T06:40:51.766Z,99880.28
2018-08-09T06:43:18.729Z,99864.33
2018-08-09T06:45:45.693Z,99858.23
2018-08-09T06:48:12.665Z,99861.38
2018-08-09T06:50:39.621Z,99855.64
2018-08-09T06:53:06.551Z,99840.97
2018-08-09T06:55:33.561Z,99844.72
2018-08-09T06:58:00.551Z,99839.39
2018-08-09T07:00:28.326Z,99841.59
2018-08-09T07:02:55.320Z,99844.14
2018-08-09T07:05:22.234Z,99839.67
2018-08-09T07:07:49.110Z,99835.63
2018-08-09T07:10:16.097Z,99841.79
2018-08-09T07:12:43.049Z,99833.21
2018-08-09T07:15:11.629Z,99833.69
2018-08-09T07:17:38.997Z,99842.23
2018-08-09T07:20:06.889Z,99838.09
2018-08-09T07:22:33.863Z,99844.42
2018-08-09T07:25:00.810Z,99839.17
2018-08-09T07:27:27.770Z,99839.43
2018-08-09T07:29:54.704Z,99835.13
2018-08-09T07:32:22.703Z,99833.80
2018-08-09T07:34:49.637Z,99823.39
2018-08-09T07:37:16.607Z,99824.30
2018-08-09T07:39:43.563Z,99822.91
2018-08-09T07:42:10.526Z,99823.22
2018-08-09T07:44:37.465Z,99827.31
2018-08-09T07:47:04.425Z,99831.33
2018-08-09T07:49:31.429Z,99830.78
2018-08-09T07:51:58.393Z,99830.52
2018-08-09T07:54:25.331Z,99842.36
2018-08-09T07:56:52.510Z,99843.22
2018-08-09T07:59:19.394Z,99845.58
2018-08-09T08:01:46.282Z,99828.03
2018-08-09T08:04:13.226Z,99824.32
2018-08-09T08:06:40.209Z,99823.89
2018-08-09T08:09:09.393Z,99816.89
2018-08-09T08:11:36.356Z,99815.41
2018-08-09T08:14:03.462Z,99812.93
2018-08-09T08:16:30.410Z,99817.06
2018-08-09T08:18:57.347Z,99808.83
2018-08-09T08:21:24.375Z,99807.06
2018-08-09T08:23:51.258Z,99809.87
2018-08-09T08:26:18.225Z,99812.66
2018-08-09T08:28:45.226Z,99815.25
2018-08-09T08:31:12.098Z,99813.15
2018-08-09T08:33:40.005Z,99816.53
2018-08-09T08:36:06.982Z,99809.13
2018-08-09T08:38:33.930Z,99807.48
2018-08-09T08:41:00.933Z,99807.72
2018-08-09T08:43:27.841Z,99809.63
2018-08-09T08:45:54.809Z,99821.59
2018-08-09T08:48:21.766Z,99810.67
2018-08-09T08:50:48.705Z,99805.68
2018-08-09T08:53:15.744Z,99810.37
2018-08-09T08:55:42.627Z,99813.41
2018-08-09T08:58:09.617Z,99812.61
2018-08-09T09:00:36.538Z,99807.36
2018-08-09T09:03:03.533Z,99812.02
2018-08-09T09:05:30.526Z,99814.95
2018-08-09T09:07:57.403Z,99815.37
2018-08-09T09:10:24.382Z,99813.86
2018-08-09T09:12:51.368Z,99828.89
2018-08-09T09:15:18.289Z,99816.67
2018-08-09T09:17:45.246Z,99810.41
2018-08-09T09:20:13.546Z,99802.66
2018-08-09T09:22:41.000Z,99791.72
2018-08-09T09:25:08.876Z,99790.16
2018-08-09T09:27:35.902Z,99776.34
2018-08-09T09:30:03.174Z,99762.64
2018-08-09T09:32:30.142Z,99766.13
2018-08-09T09:34:57.174Z,99764.35
2018-08-09T09:37:24.077Z,99752.53
2018-08-09T09:39:51.010Z,99740.32
2018-08-09T09:42:17.905Z,99737.58
2018-08-09T09:44:44.862Z,99739.81
2018-08-09T09:47:11.821Z,99738.06
2018-08-09T09:49:38.801Z,99727.41
2018-08-09T09:52:05.757Z,99722.84
2018-08-09T09:54:32.751Z,99717.57
2018-08-09T09:56:59.729Z,99704.51
2018-08-09T09:59:26.736Z,99707.76
2018-08-09T10:01:53.775Z,99701.94
2018-08-09T10:04:20.726Z,99697.71
2018-08-09T10:06:48.405Z,99671.91
2018-08-09T10:09:15.371Z,99681.40
2018-08-09T10:11:42.306Z,99675.48
2018-08-09T10:14:09.297Z,99671.81
2018-08-09T10:16:36.246Z,99680.55
2018-08-09T10:19:03.214Z,99675.25
2018-08-09T10:21:30.229Z,99672.53
2018-08-09T10:23:57.207Z,99675.73
2018-08-09T10:26:24.434Z,99677.02
2018-08-09T10:28:51.443Z,99678.94
2018-08-09T10:31:18.382Z,99679.55
2018-08-09T10:33:45.890Z,99663.82
2018-08-09T10:36:13.586Z,99664.09
2018-08-09T10:38:41.626Z,99662.45
2018-08-09T10:41:08.977Z,99660.68
2018-08-09T10:43:36.002Z,99654.53
2018-08-09T10:46:02.955Z,99651.63
2018-08-09T10:48:29.887Z,99651.02
2018-08-09T10:50:56.814Z,99632.09
2018-08-09T10:53:23.777Z,99630.85
2018-08-09T10:55:50.726Z,99617.84
2018-08-09T10:58:17.685Z,99624.87
2018-08-09T11:00:44.645Z,99625.59
2018-08-09T11:03:11.613Z,99603.23
2018-08-09T11:05:38.533Z,99596.15
2018-08-09T11:08:05.562Z,99594.89
2018-08-09T11:10:32.629Z,99587.22
2018-08-09T11:12:59.561Z,99584.50
2018-08-09T11:15:26.446Z,99583.96
2018-08-09T11:17:53.345Z,99573.70
2018-08-09T11:20:20.337Z,99580.84
2018-08-09T11:22:47.302Z,99569.43
2018-08-09T11:25:14.238Z,99570.32
2018-08-09T11:27:41.192Z,99566.39
2018-08-09T11:30:08.133Z,99560.81
2018-08-09T11:32:36.102Z,99565.34
2018-08-09T11:35:03.409Z,99564.27
2018-08-09T11:37:30.473Z,99556.89
2018-08-09T11:39:57.438Z,99559.06
2018-08-09T11:42:24.370Z,99557.66
2018-08-09T11:44:51.447Z,99553.94
2018-08-09T11:47:18.530Z,99545.04
2018-08-09T11:49:45.476Z,99550.91
2018-08-09T11:52:12.423Z,99562.73
2018-08-09T11:54:39.398Z,99563.70
2018-08-09T11:57:06.350Z,99568.95
2018-08-09T11:59:33.466Z,99573.10
2018-08-09T12:02:00.430Z,99562.86
2018-08-09T12:04:27.443Z,99564.69
2018-08-09T12:06:54.338Z,99559.08
2018-08-09T12:09:21.314Z,99555.31
2018-08-09T12:11:48.278Z,99554.88
2018-08-09T12:14:15.256Z,99553.84
2018-08-09T12:16:43.035Z,99553.63
2018-08-09T12:19:09.953Z,99599.96
2018-08-09T12:21:36.895Z,99638.08
2018-08-09T12:24:03.873Z,99741.73
2018-08-09T12:26:31.219Z,99765.39
2018-08-09T12:28:58.187Z,99758.55
2018-08-09T12:31:25.149Z,99808.36
2018-08-09T12:33:52.102Z,99756.38
2018-08-09T12:36:19.066Z,99775.05
2018-08-09T12:38:46.014Z,99771.55
2018-08-09T12:41:12.957Z,99762.36
2018-08-09T12:43:39.921Z,99748.03
2018-08-09T12:46:06.919Z,99761.66
2018-08-09T12:48:33.872Z,99770.22
2018-08-09T12:51:00.847Z,99772.36
2018-08-09T12:53:27.767Z,99750.73
2018-08-09T12:55:54.691Z,99740.83
2018-08-09T12:58:21.650Z,99725.33
2018-08-09T13:00:48.630Z,99723.86
2018-08-09T13:03:15.565Z,99742.33
2018-08-09T13:05:42.547Z,99764.26
2018-08-09T13:08:09.497Z,99784.06
2018-08-09T13:10:36.459Z,99784.58
2018-08-09T13:13:03.463Z,99789.67
2018-08-09T13:15:30.449Z,99811.06
2018-08-09T13:17:57.335Z,99804.52
2018-08-09T13:20:24.304Z,99804.02
2018-08-09T13:22:52.417Z,99815.08
2018-08-09T13:25:19.362Z,99821.45
2018-08-09T13:27:46.577Z,99845.56
2018-08-09T13:30:13.892Z,99854.86
2018-08-09T13:32:41.851Z,99838.61
2018-08-09T13:35:09.098Z,99876.67
2018-08-09T13:37:36.075Z,99898.52
2018-08-09T13:40:04.506Z,99911.91
2018-08-09T13:42:31.510Z,99897.95
2018-08-09T13:44:58.533Z,99905.40
2018-08-09T13:47:25.518Z,99898.15
2018-08-09T13:49:52.555Z,99894.23
2018-08-09T13:52:19.579Z,99897.94
2018-08-09T13:54:46.490Z,99894.41
2018-08-09T13:57:13.462Z,99894.47
2018-08-09T13:59:41.026Z,99897.08
2018-08-09T14:02:07.998Z,99885.68
2018-08-09T14:04:34.954Z,99885.90
2018-08-09T14:07:01.894Z,99878.41
2018-08-09T14:09:30.918Z,99876.63
2018-08-09T14:11:57.846Z,99907.56
2018-08-09T14:14:25.889Z,99919.83
2018-08-09T14:16:52.827Z,99929.05
2018-08-09T14:19:19.769Z,99922.88
2018-08-09T14:21:46.756Z,99934.41
2018-08-09T14:24:13.709Z,99935.97
2018-08-09T14:26:40.679Z,99915.67
2018-08-09T14:29:08.294Z,99912.72
2018-08-09T14:31:35.241Z,99922.56
2018-08-09T14:34:02.250Z,99911.38
2018-08-09T14:36:29.170Z,99893.61
2018-08-09T14:38:56.189Z,99895.21
2018-08-09T14:41:23.125Z,99890.73
2018-08-09T14:43:50.087Z,99899.05
2018-08-09T14:46:17.091Z,99892.33
2018-08-09T14:48:44.186Z,99913.54
2018-08-09T14:51:11.038Z,99908.72
2018-08-09T14:53:39.052Z,99913.80
2018-08-09T14:56:05.978Z,99919.24
2018-08-09T14:58:32.938Z,99917.91
2018-08-09T15:01:00.494Z,99927.96
2018-08-09T15:03:28.058Z,99933.76
2018-08-09T15:05:55.046Z,99944.93
2018-08-09T15:08:22.038Z,99949.22
2018-08-09T15:10:49.042Z,99947.14
2018-08-09T15:13:16.014Z,99943.51
2018-08-09T15:15:42.967Z,99955.25
2018-08-09T15:18:09.994Z,99954.18
2018-08-09T15:20:36.977Z,99964.58
2018-08-09T15:23:03.912Z,99964.95
2018-08-09T15:25:30.951Z,99963.61
2018-08-09T15:27:57.894Z,99957.88
2018-08-09T15:30:25.871Z,99966.88
2018-08-09T15:32:53.550Z,99950.91
2018-08-09T15:35:20.486Z,99961.08
2018-08-09T15:37:47.423Z,99950.31
2018-08-09T15:40:15.488Z,99939.86
2018-08-09T15:42:46.389Z,99947.24
2018-08-09T15:45:14.132Z,99955.30
2018-08-09T15:47:41.663Z,99941.28
2018-08-09T15:50:12.438Z,99935.95
2018-08-09T15:52:39.722Z,99937.06
2018-08-09T15:55:07.158Z,99934.27
2018-08-09T15:57:34.158Z,99920.32
2018-08-09T16:00:01.167Z,99915.98
2018-08-09T16:02:28.287Z,99915.15
2018-08-09T16:04:55.521Z,99917.05
2018-08-09T16:07:23.139Z,99913.66
2018-08-09T16:09:50.259Z,99914.45
2018-08-09T16:12:17.286Z,99917.28
2018-08-09T16:14:44.188Z,99923.67
2018-08-09T16:17:11.587Z,99911.42
2018-08-09T16:19:39.145Z,99908.91
2018-08-09T16:22:06.190Z,99909.44
2018-08-09T16:24:33.147Z,99911.28
2018-08-09T16:27:00.137Z,99906.23
2018-08-09T16:29:27.029Z,99904.08
2018-08-09T16:31:54.006Z,99898.62
2018-08-09T16:34:22.618Z,99893.56
2018-08-09T16:36:50.213Z,99900.76
2018-08-09T16:39:17.180Z,99903.83
2018-08-09T16:41:44.083Z,99909.75
2018-08-09T16:44:11.625Z,99902.77
2018-08-09T16:46:38.549Z,99905.30
2018-08-09T16:49:05.665Z,99903.92
2018-08-09T16:51:32.671Z,99902.68
2018-08-09T16:53:59.594Z,99919.58
2018-08-09T16:56:27.368Z,99918.58
2018-08-09T16:58:54.317Z,99929.45
2018-08-09T17:01:21.353Z,99942.27
2018-08-09T17:03:48.322Z,99942.59
2018-08-09T17:06:15.398Z,99958.28
2018-08-09T17:08:42.375Z,99966.38
2018-08-09T17:11:10.129Z,99989.56
2018-08-09T17:13:37.162Z,99989.45
2018-08-09T17:16:04.112Z,99998.05
2018-08-09T17:18:31.035Z,99985.92
2018-08-09T17:20:58.042Z,100001.41
2018-08-09T17:23:24.938Z,100002.81
2018-08-09T17:25:52.628Z,100007.71
2018-08-09T17:28:19.578Z,100000.83
2018-08-09T17:30:46.545Z,100007.58
2018-08-09T17:33:15.530Z,100009.61
2018-08-09T17:35:43.106Z,100017.03
2018-08-09T17:38:11.679Z,100022.91
2018-08-09T17:40:39.166Z,100024.39
2018-08-09T17:43:06.142Z,100011.06
2018-08-09T17:45:34.449Z,100013.46
2018-08-09T17:48:01.780Z,100020.53
2018-08-09T17:50:28.936Z,100020.86
2018-08-09T17:52:58.722Z,100030.08
2018-08-09T17:55:26.742Z,100030.70
2018-08-09T17:57:53.694Z,100034.05
2018-08-09T18:00:25.050Z,100047.69
2018-08-09T18:02:53.584Z,100022.55
2018-08-09T18:05:20.602Z,100041.70
2018-08-09T18:07:47.634Z,100039.81
2018-08-09T18:10:18.858Z,100050.38
2018-08-09T18:12:46.390Z,100056.36
2018-08-09T18:15:13.490Z,100068.45
2018-08-09T18:17:40.490Z,100080.55
2018-08-09T18:20:10.066Z,100068.87
2018-08-09T18:22:36.992Z,100084.49
2018-08-09T18:25:05.439Z,100090.28
2018-08-09T18:27:32.337Z,100084.14
2018-08-09T18:30:00.170Z,100090.66
2018-08-09T18:32:27.697Z,100085.06
2018-08-09T18:34:54.728Z,100096.91
2018-08-09T18:37:21.701Z,100100.33
2018-08-09T18:39:48.679Z,100104.99
2018-08-09T18:42:15.607Z,100103.14
2018-08-09T18:44:42.586Z,100093.44
2018-08-09T18:47:09.642Z,100095.73
2018-08-09T18:49:37.709Z,100105.67
2018-08-09T18:52:05.211Z,100108.13
2018-08-09T18:54:33.717Z,100103.95
2018-08-09T18:57:00.629Z,100121.51
2018-08-09T18:59:28.301Z,100120.89
2018-08-09T19:01:55.199Z,100126.80
2018-08-09T19:04:22.142Z,100122.82
2018-08-09T19:06:49.734Z,100127.97
2018-08-09T19:09:16.728Z,100138.95
2018-08-09T19:11:43.630Z,100129.25
2018-08-09T19:14:10.563Z,100135.25
2018-08-09T19:16:37.521Z,100133.14
2018-08-09T19:19:04.718Z,100136.71
2018-08-09T19:21:31.756Z,100147.34
2018-08-09T19:23:58.843Z,100151.92
2018-08-09T19:26:26.979Z,100159.66
2018-08-09T19:28:53.950Z,100165.27
2018-08-09T19:31:20.973Z,100159.53
2018-08-09T19:33:47.874Z,100175.08
2018-08-09T19:36:14.813Z,100183.56
2018-08-09T19:38:41.838Z,100177.11
2018-08-09T19:41:08.972Z,100185.18
2018-08-09T19:43:35.955Z,100188.52
2018-08-09T19:46:02.892Z,100192.53
2018-08-09T19:48:29.888Z,100182.58
2018-08-09T19:50:56.782Z,100198.84
2018-08-09T19:53:23.770Z,100183.14
2018-08-09T19:55:50.746Z,100189.78
2018-08-09T19:58:17.626Z,100199.41
2018-08-09T20:00:44.502Z,100198.31
2018-08-09T20:03:11.516Z,100207.58
2018-08-09T20:05:39.306Z,100200.45
2018-08-09T20:08:06.250Z,100215.05
2018-08-09T20:10:33.189Z,100215.72
2018-08-09T20:13:00.119Z,100217.77
2018-08-09T20:15:27.080Z,100215.69
2018-08-09T20:17:54.034Z,100217.19
2018-08-09T20:20:22.530Z,100213.81
2018-08-09T20:22:50.272Z,100225.23
2018-08-09T20:25:17.149Z,100228.69
2018-08-09T20:27:44.729Z,100226.91
2018-08-09T20:30:13.218Z,100238.50
2018-08-09T20:32:41.717Z,100234.45
2018-08-09T20:35:11.939Z,100240.17
2018-08-09T20:37:40.351Z,100240.69
2018-08-09T20:40:08.358Z,100238.02
2018-08-09T20:42:35.468Z,100244.13
2018-08-09T20:45:02.379Z,100250.16
2018-08-09T20:47:29.395Z,100250.23
2018-08-09T20:49:56.348Z,100254.23
2018-08-09T20:52:23.359Z,100247.02
2018-08-09T20:54:51.290Z,100243.45
2018-08-09T20:57:18.305Z,100249.56
2018-08-09T20:59:45.203Z,100249.11
2018-08-09T21:02:12.226Z,100254.70
2018-08-09T21:04:39.118Z,100263.70
2018-08-09T21:07:06.199Z,100263.36
2018-08-09T21:09:34.158Z,100266.93
2018-08-09T21:12:01.090Z,100275.77
2018-08-09T21:14:27.983Z,100275.92
2018-08-09T21:16:54.966Z,100276.56
2018-08-09T21:19:21.921Z,100283.20
2018-08-09T21:21:48.862Z,100283.63
2018-08-09T21:24:15.782Z,100290.12
2018-08-09T21:26:42.723Z,100303.02
2018-08-09T21:29:09.626Z,100310.39
2018-08-09T21:31:36.597Z,100308.31
2018-08-09T21:34:03.541Z,100313.39
2018-08-09T21:36:30.482Z,100310.08
2018-08-09T21:38:57.494Z,100326.28
2018-08-09T21:41:25.432Z,100333.38
2018-08-09T21:43:53.335Z,100346.16
2018-08-09T21:46:20.251Z,100353.77
2018-08-09T21:48:47.126Z,100365.41
2018-08-09T21:51:14.281Z,100371.55
2018-08-09T21:53:41.266Z,100371.48
2018-08-09T21:56:08.242Z,100370.62
2018-08-09T21:58:35.767Z,100375.19
2018-08-09T22:01:04.278Z,100395.45
2018-08-09T22:03:34.397Z,100397.98
2018-08-09T22:06:07.152Z,100406.20
2018-08-09T22:08:39.796Z,100409.17
2018-08-09T22:11:13.110Z,100417.85
2018-08-09T22:13:45.671Z,100410.59
2018-08-09T22:16:18.478Z,100419.05
2018-08-09T22:18:53.120Z,100406.83
2018-08-09T22:21:26.526Z,100411.50
2018-08-09T22:23:53.543Z,100422.12
2018-08-09T22:26:20.479Z,100421.17
2018-08-09T22:28:47.402Z,100429.28
2018-08-09T22:31:14.758Z,100433.84
2018-08-09T22:33:41.745Z,100443.75
2018-08-09T22:36:09.728Z,100445.80
2018-08-09T22:38:36.654Z,100456.88
2018-08-09T22:41:03.690Z,100464.39
2018-08-09T22:43:30.574Z,100475.14
2018-08-09T22:45:58.553Z,100475.91
2018-08-09T22:48:25.634Z,100472.48
2018-08-09T22:50:52.729Z,100479.30
2018-08-09T22:53:19.618Z,100484.69
2018-08-09T22:55:47.000Z,100482.73
2018-08-09T22:58:14.271Z,100472.55
2018-08-09T23:00:41.218Z,100491.20
2018-08-09T23:03:09.813Z,100496.17
2018-08-09T23:05:37.330Z,100502.56
2018-08-09T23:08:05.074Z,100501.14
2018-08-09T23:10:32.865Z,100511.96
2018-08-09T23:12:59.818Z,100518.76
2018-08-09T23:15:27.378Z,100529.42
2018-08-09T23:17:54.382Z,100535.85
2018-08-09T23:20:21.339Z,100533.66
2018-08-09T23:22:50.306Z,100541.70
2018-08-09T23:25:17.246Z,100545.70
2018-08-09T23:27:45.954Z,100549.52
2018-08-09T23:30:12.927Z,100540.68
2018-08-09T23:32:40.922Z,100536.83
2018-08-09T23:35:09.299Z,100552.03
2018-08-09T23:37:36.866Z,100545.94
2018-08-09T23:40:05.034Z,100549.95
2018-08-09T23:42:33.741Z,100553.07
2018-08-09T23:45:00.705Z,100562.52
2018-08-09T23:47:27.666Z,100562.11
2018-08-09T23:49:54.661Z,100575.31
2018-08-09T23:52:21.600Z,100578.94
2018-08-09T23:54:48.707Z,100579.16
2018-08-09T23:57:15.583Z,100592.73
2018-08-09T23:59:43.385Z,100592.02
